sensor_id;sensor_type;location;lat;lon;timestamp;P1;durP1;ratioP1;P2;durP2;ratioP2
15833;SDS011;8017;50.812;4.934;2023-02-17T00:02:54;8.73;;;7.43;;
15833;SDS011;8017;50.812;4.934;2023-02-17T00:05:57;11.17;;;7.73;;
15833;SDS011;8017;50.812;4.934;2023-02-17T00:09:00;9.00;;;8.10;;
15833;SDS011;8017;50.812;4.934;2023-02-17T00:12:03;9.50;;;8.50;;
15833;SDS011;8017;50.812;4.934;2023-02-17T00:15:05;9.17;;;8.27;;
15833;SDS011;8017;50.812;4.934;2023-02-17T00:18:07;11.87;;;8.93;;
15833;SDS011;8017;50.812;4.934;2023-02-17T00:21:10;10.03;;;8.90;;
15833;SDS011;8017;50.812;4.934;2023-02-17T00:24:14;9.63;;;8.63;;
15833;SDS011;8017;50.812;4.934;2023-02-17T00:27:16;11.10;;;10.03;;
15833;SDS011;8017;50.812;4.934;2023-02-17T00:30:18;10.57;;;9.37;;
15833;SDS011;8017;50.812;4.934;2023-02-17T00:33:20;10.70;;;9.60;;
15833;SDS011;8017;50.812;4.934;2023-02-17T00:36:22;12.23;;;9.13;;
15833;SDS011;8017;50.812;4.934;2023-02-17T00:39:26;11.00;;;9.90;;
15833;SDS011;8017;50.812;4.934;2023-02-17T00:42:29;10.67;;;9.63;;
15833;SDS011;8017;50.812;4.934;2023-02-17T00:45:31;11.70;;;10.50;;
15833;SDS011;8017;50.812;4.934;2023-02-17T00:48:33;11.03;;;9.87;;
15833;SDS011;8017;50.812;4.934;2023-02-17T00:51:34;10.80;;;9.67;;
15833;SDS011;8017;50.812;4.934;2023-02-17T00:54:38;10.23;;;9.30;;
15833;SDS011;8017;50.812;4.934;2023-02-17T00:57:41;9.87;;;8.83;;
15833;SDS011;8017;50.812;4.934;2023-02-17T01:00:42;9.27;;;8.03;;
15833;SDS011;8017;50.812;4.934;2023-02-17T01:03:44;8.10;;;7.20;;
15833;SDS011;8017;50.812;4.934;2023-02-17T01:06:46;8.57;;;7.70;;
15833;SDS011;8017;50.812;4.934;2023-02-17T01:09:49;8.23;;;7.43;;
15833;SDS011;8017;50.812;4.934;2023-02-17T01:12:51;7.77;;;7.07;;
15833;SDS011;8017;50.812;4.934;2023-02-17T01:15:53;8.17;;;7.37;;
15833;SDS011;8017;50.812;4.934;2023-02-17T01:18:55;8.07;;;7.27;;
15833;SDS011;8017;50.812;4.934;2023-02-17T01:21:58;8.50;;;7.73;;
15833;SDS011;8017;50.812;4.934;2023-02-17T01:25:01;7.77;;;6.97;;
15833;SDS011;8017;50.812;4.934;2023-02-17T01:28:04;7.07;;;6.37;;
15833;SDS011;8017;50.812;4.934;2023-02-17T01:31:06;6.70;;;6.10;;
15833;SDS011;8017;50.812;4.934;2023-02-17T01:34:09;6.13;;;5.53;;
15833;SDS011;8017;50.812;4.934;2023-02-17T01:37:11;7.17;;;5.80;;
15833;SDS011;8017;50.812;4.934;2023-02-17T01:40:14;7.20;;;6.50;;
15833;SDS011;8017;50.812;4.934;2023-02-17T01:43:17;7.57;;;6.50;;
15833;SDS011;8017;50.812;4.934;2023-02-17T01:46:19;8.07;;;7.37;;
15833;SDS011;8017;50.812;4.934;2023-02-17T01:49:23;9.13;;;8.17;;
15833;SDS011;8017;50.812;4.934;2023-02-17T01:52:31;10.70;;;9.40;;
15833;SDS011;8017;50.812;4.934;2023-02-17T01:55:34;10.27;;;9.37;;
15833;SDS011;8017;50.812;4.934;2023-02-17T01:58:39;12.53;;;11.33;;
15833;SDS011;8017;50.812;4.934;2023-02-17T02:01:43;13.37;;;12.17;;
15833;SDS011;8017;50.812;4.934;2023-02-17T02:04:45;12.87;;;11.57;;
15833;SDS011;8017;50.812;4.934;2023-02-17T02:07:51;14.07;;;12.67;;
15833;SDS011;8017;50.812;4.934;2023-02-17T02:10:54;13.40;;;12.10;;
15833;SDS011;8017;50.812;4.934;2023-02-17T02:13:56;11.40;;;10.33;;
15833;SDS011;8017;50.812;4.934;2023-02-17T02:17:03;8.40;;;7.60;;
15833;SDS011;8017;50.812;4.934;2023-02-17T02:23:52;6.87;;;5.87;;
15833;SDS011;8017;50.812;4.934;2023-02-17T02:27:30;6.10;;;5.50;;
15833;SDS011;8017;50.812;4.934;2023-02-17T02:30:45;6.63;;;6.00;;
15833;SDS011;8017;50.812;4.934;2023-02-17T02:33:58;5.70;;;5.10;;
15833;SDS011;8017;50.812;4.934;2023-02-17T02:37:05;5.53;;;5.03;;
15833;SDS011;8017;50.812;4.934;2023-02-17T02:40:13;5.83;;;5.33;;
15833;SDS011;8017;50.812;4.934;2023-02-17T02:43:16;5.93;;;5.20;;
15833;SDS011;8017;50.812;4.934;2023-02-17T02:46:19;5.43;;;4.93;;
15833;SDS011;8017;50.812;4.934;2023-02-17T02:49:22;5.70;;;5.07;;
15833;SDS011;8017;50.812;4.934;2023-02-17T02:52:25;5.23;;;4.83;;
15833;SDS011;8017;50.812;4.934;2023-02-17T02:55:37;5.33;;;4.83;;
15833;SDS011;8017;50.812;4.934;2023-02-17T02:58:48;5.07;;;4.60;;
15833;SDS011;8017;50.812;4.934;2023-02-17T03:02:03;5.40;;;4.90;;
15833;SDS011;8017;50.812;4.934;2023-02-17T03:05:14;5.00;;;4.60;;
15833;SDS011;8017;50.812;4.934;2023-02-17T03:08:24;5.67;;;4.67;;
15833;SDS011;8017;50.812;4.934;2023-02-17T03:11:30;5.20;;;4.80;;
15833;SDS011;8017;50.812;4.934;2023-02-17T03:14:34;5.67;;;5.17;;
15833;SDS011;8017;50.812;4.934;2023-02-17T03:17:38;5.90;;;5.40;;
15833;SDS011;8017;50.812;4.934;2023-02-17T03:20:42;6.10;;;5.53;;
15833;SDS011;8017;50.812;4.934;2023-02-17T03:23:46;5.83;;;5.33;;
15833;SDS011;8017;50.812;4.934;2023-02-17T03:26:48;6.37;;;5.87;;
15833;SDS011;8017;50.812;4.934;2023-02-17T03:29:50;6.87;;;5.47;;
15833;SDS011;8017;50.812;4.934;2023-02-17T03:32:51;6.20;;;5.60;;
15833;SDS011;8017;50.812;4.934;2023-02-17T03:35:55;6.07;;;5.47;;
15833;SDS011;8017;50.812;4.934;2023-02-17T03:38:57;6.93;;;6.23;;
15833;SDS011;8017;50.812;4.934;2023-02-17T03:41:59;7.50;;;6.80;;
15833;SDS011;8017;50.812;4.934;2023-02-17T03:45:02;7.00;;;6.30;;
15833;SDS011;8017;50.812;4.934;2023-02-17T03:48:04;7.07;;;6.37;;
15833;SDS011;8017;50.812;4.934;2023-02-17T03:51:12;9.63;;;6.93;;
15833;SDS011;8017;50.812;4.934;2023-02-17T03:54:15;7.33;;;6.63;;
15833;SDS011;8017;50.812;4.934;2023-02-17T03:57:17;8.53;;;7.57;;
15833;SDS011;8017;50.812;4.934;2023-02-17T04:00:19;8.57;;;7.80;;
15833;SDS011;8017;50.812;4.934;2023-02-17T04:03:21;9.90;;;8.90;;
15833;SDS011;8017;50.812;4.934;2023-02-17T04:06:25;11.00;;;9.90;;
15833;SDS011;8017;50.812;4.934;2023-02-17T04:09:27;11.50;;;10.23;;
15833;SDS011;8017;50.812;4.934;2023-02-17T04:12:29;13.13;;;11.73;;
15833;SDS011;8017;50.812;4.934;2023-02-17T04:15:31;13.80;;;12.40;;
15833;SDS011;8017;50.812;4.934;2023-02-17T04:18:33;14.13;;;12.20;;
15833;SDS011;8017;50.812;4.934;2023-02-17T04:21:37;13.53;;;12.07;;
15833;SDS011;8017;50.812;4.934;2023-02-17T04:24:38;14.40;;;12.53;;
15833;SDS011;8017;50.812;4.934;2023-02-17T04:27:40;14.67;;;13.10;;
15833;SDS011;8017;50.812;4.934;2023-02-17T04:30:42;18.77;;;16.30;;
15833;SDS011;8017;50.812;4.934;2023-02-17T04:33:45;20.10;;;17.03;;
15833;SDS011;8017;50.812;4.934;2023-02-17T04:36:48;22.33;;;18.60;;
15833;SDS011;8017;50.812;4.934;2023-02-17T04:39:50;25.20;;;19.17;;
15833;SDS011;8017;50.812;4.934;2023-02-17T04:42:52;20.07;;;17.00;;
15833;SDS011;8017;50.812;4.934;2023-02-17T04:45:54;17.57;;;15.33;;
15833;SDS011;8017;50.812;4.934;2023-02-17T04:48:56;16.90;;;13.60;;
15833;SDS011;8017;50.812;4.934;2023-02-17T04:52:00;13.90;;;12.10;;
15833;SDS011;8017;50.812;4.934;2023-02-17T04:55:02;14.57;;;13.00;;
15833;SDS011;8017;50.812;4.934;2023-02-17T04:58:04;15.30;;;13.30;;
15833;SDS011;8017;50.812;4.934;2023-02-17T05:01:06;18.20;;;14.97;;
15833;SDS011;8017;50.812;4.934;2023-02-17T05:04:08;17.13;;;14.87;;
15833;SDS011;8017;50.812;4.934;2023-02-17T05:07:11;17.80;;;15.13;;
15833;SDS011;8017;50.812;4.934;2023-02-17T05:10:14;15.60;;;13.03;;
15833;SDS011;8017;50.812;4.934;2023-02-17T05:13:17;12.47;;;10.97;;
15833;SDS011;8017;50.812;4.934;2023-02-17T05:16:19;10.10;;;9.10;;
15833;SDS011;8017;50.812;4.934;2023-02-17T05:19:21;9.90;;;8.77;;
15833;SDS011;8017;50.812;4.934;2023-02-17T05:22:25;13.67;;;10.80;;
15833;SDS011;8017;50.812;4.934;2023-02-17T05:25:27;14.07;;;12.57;;
15833;SDS011;8017;50.812;4.934;2023-02-17T05:28:29;17.10;;;13.70;;
15833;SDS011;8017;50.812;4.934;2023-02-17T05:31:31;17.83;;;15.43;;
15833;SDS011;8017;50.812;4.934;2023-02-17T05:34:33;15.77;;;13.60;;
15833;SDS011;8017;50.812;4.934;2023-02-17T05:37:37;17.27;;;12.90;;
15833;SDS011;8017;50.812;4.934;2023-02-17T05:40:39;13.33;;;8.93;;
15833;SDS011;8017;50.812;4.934;2023-02-17T05:43:40;9.53;;;8.20;;
15833;SDS011;8017;50.812;4.934;2023-02-17T05:46:42;9.07;;;7.50;;
15833;SDS011;8017;50.812;4.934;2023-02-17T05:49:44;7.80;;;7.00;;
15833;SDS011;8017;50.812;4.934;2023-02-17T05:52:48;7.27;;;6.17;;
15833;SDS011;8017;50.812;4.934;2023-02-17T05:55:50;11.47;;;7.57;;
15833;SDS011;8017;50.812;4.934;2023-02-17T05:58:51;8.40;;;7.27;;
15833;SDS011;8017;50.812;4.934;2023-02-17T06:01:53;7.53;;;6.73;;
15833;SDS011;8017;50.812;4.934;2023-02-17T06:04:55;10.70;;;8.00;;
15833;SDS011;8017;50.812;4.934;2023-02-17T06:07:59;10.13;;;8.27;;
15833;SDS011;8017;50.812;4.934;2023-02-17T06:11:00;10.03;;;8.20;;
15833;SDS011;8017;50.812;4.934;2023-02-17T06:14:03;10.50;;;8.60;;
15833;SDS011;8017;50.812;4.934;2023-02-17T06:17:04;10.10;;;7.93;;
15833;SDS011;8017;50.812;4.934;2023-02-17T06:20:07;9.63;;;8.47;;
15833;SDS011;8017;50.812;4.934;2023-02-17T06:23:11;10.33;;;8.27;;
15833;SDS011;8017;50.812;4.934;2023-02-17T06:26:13;9.23;;;7.87;;
15833;SDS011;8017;50.812;4.934;2023-02-17T06:29:17;10.47;;;8.50;;
15833;SDS011;8017;50.812;4.934;2023-02-17T06:32:19;9.20;;;8.13;;
15833;SDS011;8017;50.812;4.934;2023-02-17T06:35:21;11.97;;;8.67;;
15833;SDS011;8017;50.812;4.934;2023-02-17T06:38:24;10.60;;;8.60;;
15833;SDS011;8017;50.812;4.934;2023-02-17T06:41:26;10.37;;;8.80;;
15833;SDS011;8017;50.812;4.934;2023-02-17T06:44:28;8.70;;;7.80;;
15833;SDS011;8017;50.812;4.934;2023-02-17T06:47:30;11.90;;;9.40;;
15833;SDS011;8017;50.812;4.934;2023-02-17T06:50:32;10.10;;;8.53;;
15833;SDS011;8017;50.812;4.934;2023-02-17T06:53:36;10.17;;;7.73;;
15833;SDS011;8017;50.812;4.934;2023-02-17T06:56:38;11.63;;;7.90;;
15833;SDS011;8017;50.812;4.934;2023-02-17T06:59:39;9.10;;;8.20;;
15833;SDS011;8017;50.812;4.934;2023-02-17T07:02:42;9.73;;;7.43;;
15833;SDS011;8017;50.812;4.934;2023-02-17T07:05:43;9.10;;;7.40;;
15833;SDS011;8017;50.812;4.934;2023-02-17T07:08:47;10.77;;;7.80;;
15833;SDS011;8017;50.812;4.934;2023-02-17T07:11:49;10.07;;;7.67;;
15833;SDS011;8017;50.812;4.934;2023-02-17T07:14:51;8.80;;;7.70;;
15833;SDS011;8017;50.812;4.934;2023-02-17T07:17:53;11.37;;;8.97;;
15833;SDS011;8017;50.812;4.934;2023-02-17T07:20:55;11.17;;;8.27;;
15833;SDS011;8017;50.812;4.934;2023-02-17T07:23:58;11.13;;;8.17;;
15833;SDS011;8017;50.812;4.934;2023-02-17T07:27:00;9.90;;;8.40;;
15833;SDS011;8017;50.812;4.934;2023-02-17T07:30:03;10.57;;;8.80;;
15833;SDS011;8017;50.812;4.934;2023-02-17T07:33:06;10.03;;;8.73;;
15833;SDS011;8017;50.812;4.934;2023-02-17T07:36:09;10.30;;;8.57;;
15833;SDS011;8017;50.812;4.934;2023-02-17T07:39:14;11.23;;;10.03;;
15833;SDS011;8017;50.812;4.934;2023-02-17T07:42:16;11.07;;;9.47;;
15833;SDS011;8017;50.812;4.934;2023-02-17T07:45:18;11.17;;;9.50;;
15833;SDS011;8017;50.812;4.934;2023-02-17T07:48:20;11.13;;;9.63;;
15833;SDS011;8017;50.812;4.934;2023-02-17T07:51:22;11.57;;;10.07;;
15833;SDS011;8017;50.812;4.934;2023-02-17T07:54:26;12.73;;;9.70;;
15833;SDS011;8017;50.812;4.934;2023-02-17T07:57:28;12.40;;;10.37;;
15833;SDS011;8017;50.812;4.934;2023-02-17T08:00:31;13.40;;;10.50;;
15833;SDS011;8017;50.812;4.934;2023-02-17T08:03:33;13.70;;;10.20;;
15833;SDS011;8017;50.812;4.934;2023-02-17T08:06:35;9.83;;;8.80;;
15833;SDS011;8017;50.812;4.934;2023-02-17T08:09:40;11.00;;;9.47;;
15833;SDS011;8017;50.812;4.934;2023-02-17T08:12:59;10.57;;;9.47;;
15833;SDS011;8017;50.812;4.934;2023-02-17T08:16:15;12.90;;;9.73;;
15833;SDS011;8017;50.812;4.934;2023-02-17T08:19:17;12.40;;;9.40;;
15833;SDS011;8017;50.812;4.934;2023-02-17T08:22:19;11.90;;;8.20;;
15833;SDS011;8017;50.812;4.934;2023-02-17T08:25:22;10.43;;;8.33;;
15833;SDS011;8017;50.812;4.934;2023-02-17T08:28:24;9.07;;;7.73;;
15833;SDS011;8017;50.812;4.934;2023-02-17T08:31:27;10.30;;;7.30;;
15833;SDS011;8017;50.812;4.934;2023-02-17T08:34:30;11.00;;;8.60;;
15833;SDS011;8017;50.812;4.934;2023-02-17T08:37:33;10.03;;;8.40;;
15833;SDS011;8017;50.812;4.934;2023-02-17T08:40:36;9.27;;;8.20;;
15833;SDS011;8017;50.812;4.934;2023-02-17T08:43:39;9.43;;;8.03;;
15833;SDS011;8017;50.812;4.934;2023-02-17T08:46:42;9.83;;;8.17;;
15833;SDS011;8017;50.812;4.934;2023-02-17T08:49:47;9.03;;;7.63;;
15833;SDS011;8017;50.812;4.934;2023-02-17T08:52:48;9.17;;;7.43;;
15833;SDS011;8017;50.812;4.934;2023-02-17T08:55:52;9.63;;;7.07;;
15833;SDS011;8017;50.812;4.934;2023-02-17T08:58:54;8.83;;;6.90;;
15833;SDS011;8017;50.812;4.934;2023-02-17T09:01:56;9.40;;;6.33;;
15833;SDS011;8017;50.812;4.934;2023-02-17T09:04:58;9.63;;;6.67;;
15833;SDS011;8017;50.812;4.934;2023-02-17T09:08:00;9.77;;;6.93;;
15833;SDS011;8017;50.812;4.934;2023-02-17T09:11:04;8.23;;;6.53;;
15833;SDS011;8017;50.812;4.934;2023-02-17T09:14:06;8.83;;;6.80;;
15833;SDS011;8017;50.812;4.934;2023-02-17T09:17:09;6.87;;;6.13;;
15833;SDS011;8017;50.812;4.934;2023-02-17T09:20:11;8.87;;;6.47;;
15833;SDS011;8017;50.812;4.934;2023-02-17T09:23:13;8.30;;;6.00;;
15833;SDS011;8017;50.812;4.934;2023-02-17T09:26:17;7.17;;;6.20;;
15833;SDS011;8017;50.812;4.934;2023-02-17T09:29:19;7.77;;;5.67;;
15833;SDS011;8017;50.812;4.934;2023-02-17T09:32:21;7.83;;;6.20;;
15833;SDS011;8017;50.812;4.934;2023-02-17T09:35:23;8.67;;;5.23;;
15833;SDS011;8017;50.812;4.934;2023-02-17T09:38:25;8.50;;;6.50;;
15833;SDS011;8017;50.812;4.934;2023-02-17T09:41:29;8.20;;;5.70;;
15833;SDS011;8017;50.812;4.934;2023-02-17T09:44:39;7.73;;;5.93;;
15833;SDS011;8017;50.812;4.934;2023-02-17T09:47:43;7.00;;;6.13;;
15833;SDS011;8017;50.812;4.934;2023-02-17T09:50:49;10.07;;;6.77;;
15833;SDS011;8017;50.812;4.934;2023-02-17T09:53:58;11.70;;;7.40;;
15833;SDS011;8017;50.812;4.934;2023-02-17T09:57:09;9.60;;;7.00;;
15833;SDS011;8017;50.812;4.934;2023-02-17T10:00:20;10.10;;;7.43;;
15833;SDS011;8017;50.812;4.934;2023-02-17T10:03:25;13.90;;;7.47;;
15833;SDS011;8017;50.812;4.934;2023-02-17T10:06:35;8.47;;;6.67;;
15833;SDS011;8017;50.812;4.934;2023-02-17T10:09:41;8.03;;;6.37;;
15833;SDS011;8017;50.812;4.934;2023-02-17T10:12:50;7.30;;;6.60;;
15833;SDS011;8017;50.812;4.934;2023-02-17T10:15:55;9.03;;;6.97;;
15833;SDS011;8017;50.812;4.934;2023-02-17T10:19:04;7.40;;;6.33;;
15833;SDS011;8017;50.812;4.934;2023-02-17T10:22:14;7.10;;;6.40;;
15833;SDS011;8017;50.812;4.934;2023-02-17T10:25:19;6.70;;;5.63;;
15833;SDS011;8017;50.812;4.934;2023-02-17T10:28:37;8.27;;;5.93;;
15833;SDS011;8017;50.812;4.934;2023-02-17T10:31:52;9.07;;;5.83;;
15833;SDS011;8017;50.812;4.934;2023-02-17T10:35:04;8.37;;;7.07;;
15833;SDS011;8017;50.812;4.934;2023-02-17T10:38:14;9.67;;;6.80;;
15833;SDS011;8017;50.812;4.934;2023-02-17T10:41:19;7.80;;;6.73;;
15833;SDS011;8017;50.812;4.934;2023-02-17T10:44:25;8.37;;;6.80;;
15833;SDS011;8017;50.812;4.934;2023-02-17T10:47:28;7.70;;;6.83;;
15833;SDS011;8017;50.812;4.934;2023-02-17T10:50:31;7.93;;;6.60;;
15833;SDS011;8017;50.812;4.934;2023-02-17T10:53:35;8.10;;;6.63;;
15833;SDS011;8017;50.812;4.934;2023-02-17T10:56:40;9.10;;;7.10;;
15833;SDS011;8017;50.812;4.934;2023-02-17T10:59:48;8.30;;;6.93;;
15833;SDS011;8017;50.812;4.934;2023-02-17T11:02:50;7.23;;;6.53;;
15833;SDS011;8017;50.812;4.934;2023-02-17T11:05:53;8.80;;;6.60;;
15833;SDS011;8017;50.812;4.934;2023-02-17T11:08:57;7.13;;;5.87;;
15833;SDS011;8017;50.812;4.934;2023-02-17T11:12:03;7.93;;;6.70;;
15833;SDS011;8017;50.812;4.934;2023-02-17T11:15:14;6.23;;;5.63;;
15833;SDS011;8017;50.812;4.934;2023-02-17T11:18:19;6.50;;;5.20;;
15833;SDS011;8017;50.812;4.934;2023-02-17T11:21:26;5.87;;;4.70;;
15833;SDS011;8017;50.812;4.934;2023-02-17T11:24:29;7.90;;;4.30;;
15833;SDS011;8017;50.812;4.934;2023-02-17T11:27:33;6.27;;;4.20;;
15833;SDS011;8017;50.812;4.934;2023-02-17T11:30:38;3.90;;;3.50;;
15833;SDS011;8017;50.812;4.934;2023-02-17T11:33:41;4.30;;;3.57;;
15833;SDS011;8017;50.812;4.934;2023-02-17T11:36:43;3.50;;;2.80;;
15833;SDS011;8017;50.812;4.934;2023-02-17T11:39:46;4.20;;;2.73;;
15833;SDS011;8017;50.812;4.934;2023-02-17T11:42:54;3.90;;;2.60;;
15833;SDS011;8017;50.812;4.934;2023-02-17T11:45:59;4.67;;;2.97;;
15833;SDS011;8017;50.812;4.934;2023-02-17T11:49:39;11.93;;;3.57;;
15833;SDS011;8017;50.812;4.934;2023-02-17T11:52:58;4.93;;;2.87;;
15833;SDS011;8017;50.812;4.934;2023-02-17T11:56:13;5.00;;;2.87;;
15833;SDS011;8017;50.812;4.934;2023-02-17T11:59:26;4.00;;;2.00;;
15833;SDS011;8017;50.812;4.934;2023-02-17T12:02:42;1.57;;;1.40;;
15833;SDS011;8017;50.812;4.934;2023-02-17T12:05:57;4.70;;;1.97;;
15833;SDS011;8017;50.812;4.934;2023-02-17T12:09:08;4.30;;;1.93;;
15833;SDS011;8017;50.812;4.934;2023-02-17T12:12:18;5.57;;;1.53;;
15833;SDS011;8017;50.812;4.934;2023-02-17T12:15:28;3.90;;;1.10;;
15833;SDS011;8017;50.812;4.934;2023-02-17T12:18:46;3.43;;;1.03;;
15833;SDS011;8017;50.812;4.934;2023-02-17T12:21:56;1.73;;;1.10;;
15833;SDS011;8017;50.812;4.934;2023-02-17T12:25:14;1.10;;;0.77;;
15833;SDS011;8017;50.812;4.934;2023-02-17T12:28:37;2.10;;;0.97;;
15833;SDS011;8017;50.812;4.934;2023-02-17T12:31:48;1.73;;;1.03;;
15833;SDS011;8017;50.812;4.934;2023-02-17T12:35:02;3.80;;;1.13;;
15833;SDS011;8017;50.812;4.934;2023-02-17T12:38:15;6.23;;;1.40;;
15833;SDS011;8017;50.812;4.934;2023-02-17T12:41:20;3.43;;;1.20;;
15833;SDS011;8017;50.812;4.934;2023-02-17T12:44:27;1.37;;;1.07;;
15833;SDS011;8017;50.812;4.934;2023-02-17T12:47:33;3.30;;;1.30;;
15833;SDS011;8017;50.812;4.934;2023-02-17T12:50:43;1.53;;;1.30;;
15833;SDS011;8017;50.812;4.934;2023-02-17T12:53:52;2.40;;;1.20;;
15833;SDS011;8017;50.812;4.934;2023-02-17T12:57:05;4.07;;;1.40;;
15833;SDS011;8017;50.812;4.934;2023-02-17T13:00:14;2.50;;;1.20;;
15833;SDS011;8017;50.812;4.934;2023-02-17T13:03:20;1.53;;;1.10;;
15833;SDS011;8017;50.812;4.934;2023-02-17T13:06:24;3.00;;;1.20;;
15833;SDS011;8017;50.812;4.934;2023-02-17T13:09:31;4.20;;;1.07;;
15833;SDS011;8017;50.812;4.934;2023-02-17T13:12:37;2.97;;;0.80;;
15833;SDS011;8017;50.812;4.934;2023-02-17T13:15:42;2.17;;;1.00;;
15833;SDS011;8017;50.812;4.934;2023-02-17T13:18:47;1.27;;;0.90;;
15833;SDS011;8017;50.812;4.934;2023-02-17T13:21:52;2.07;;;0.80;;
15833;SDS011;8017;50.812;4.934;2023-02-17T13:24:55;1.00;;;0.60;;
15833;SDS011;8017;50.812;4.934;2023-02-17T13:27:57;5.07;;;0.90;;
15833;SDS011;8017;50.812;4.934;2023-02-17T13:31:11;2.33;;;1.03;;
15833;SDS011;8017;50.812;4.934;2023-02-17T13:34:23;2.40;;;1.13;;
15833;SDS011;8017;50.812;4.934;2023-02-17T13:37:37;4.17;;;1.07;;
15833;SDS011;8017;50.812;4.934;2023-02-17T13:40:41;3.27;;;0.80;;
15833;SDS011;8017;50.812;4.934;2023-02-17T13:43:43;1.47;;;0.97;;
15833;SDS011;8017;50.812;4.934;2023-02-17T13:46:49;1.33;;;0.90;;
15833;SDS011;8017;50.812;4.934;2023-02-17T13:50:01;3.13;;;1.07;;
15833;SDS011;8017;50.812;4.934;2023-02-17T13:53:18;2.47;;;1.00;;
15833;SDS011;8017;50.812;4.934;2023-02-17T13:56:23;1.00;;;0.63;;
15833;SDS011;8017;50.812;4.934;2023-02-17T13:59:27;4.57;;;1.00;;
15833;SDS011;8017;50.812;4.934;2023-02-17T14:02:28;1.43;;;0.83;;
15833;SDS011;8017;50.812;4.934;2023-02-17T14:05:34;4.43;;;1.10;;
15833;SDS011;8017;50.812;4.934;2023-02-17T14:08:40;5.47;;;1.07;;
15833;SDS011;8017;50.812;4.934;2023-02-17T14:11:43;1.00;;;0.60;;
15833;SDS011;8017;50.812;4.934;2023-02-17T14:14:45;1.80;;;0.53;;
15833;SDS011;8017;50.812;4.934;2023-02-17T14:17:47;6.40;;;1.00;;
15833;SDS011;8017;50.812;4.934;2023-02-17T14:20:49;0.60;;;0.50;;
15833;SDS011;8017;50.812;4.934;2023-02-17T14:24:02;2.23;;;0.70;;
15833;SDS011;8017;50.812;4.934;2023-02-17T14:27:04;2.47;;;0.93;;
15833;SDS011;8017;50.812;4.934;2023-02-17T14:30:11;3.00;;;1.00;;
15833;SDS011;8017;50.812;4.934;2023-02-17T14:33:18;3.50;;;1.27;;
15833;SDS011;8017;50.812;4.934;2023-02-17T14:36:26;3.90;;;1.33;;
15833;SDS011;8017;50.812;4.934;2023-02-17T14:39:31;1.33;;;1.07;;
15833;SDS011;8017;50.812;4.934;2023-02-17T14:42:33;3.13;;;0.93;;
15833;SDS011;8017;50.812;4.934;2023-02-17T14:45:35;1.57;;;0.90;;
15833;SDS011;8017;50.812;4.934;2023-02-17T14:48:37;4.80;;;0.97;;
15833;SDS011;8017;50.812;4.934;2023-02-17T14:51:38;2.77;;;1.20;;
15833;SDS011;8017;50.812;4.934;2023-02-17T14:54:42;1.53;;;0.70;;
15833;SDS011;8017;50.812;4.934;2023-02-17T14:57:44;2.90;;;1.23;;
15833;SDS011;8017;50.812;4.934;2023-02-17T15:00:46;1.70;;;0.97;;
15833;SDS011;8017;50.812;4.934;2023-02-17T15:03:48;3.80;;;1.13;;
15833;SDS011;8017;50.812;4.934;2023-02-17T15:06:51;3.00;;;1.30;;
15833;SDS011;8017;50.812;4.934;2023-02-17T15:09:55;1.90;;;1.50;;
15833;SDS011;8017;50.812;4.934;2023-02-17T15:12:57;1.57;;;1.20;;
15833;SDS011;8017;50.812;4.934;2023-02-17T15:15:59;2.17;;;1.47;;
15833;SDS011;8017;50.812;4.934;2023-02-17T15:19:01;1.70;;;1.18;;
15833;SDS011;8017;50.812;4.934;2023-02-17T15:22:03;3.40;;;1.40;;
15833;SDS011;8017;50.812;4.934;2023-02-17T15:25:10;1.53;;;1.37;;
15833;SDS011;8017;50.812;4.934;2023-02-17T15:28:15;1.97;;;1.40;;
15833;SDS011;8017;50.812;4.934;2023-02-17T15:31:19;3.60;;;1.67;;
15833;SDS011;8017;50.812;4.934;2023-02-17T15:34:22;3.93;;;1.40;;
15833;SDS011;8017;50.812;4.934;2023-02-17T15:37:28;2.67;;;1.37;;
15833;SDS011;8017;50.812;4.934;2023-02-17T15:40:32;2.93;;;1.23;;
15833;SDS011;8017;50.812;4.934;2023-02-17T15:43:34;2.23;;;1.60;;
15833;SDS011;8017;50.812;4.934;2023-02-17T15:46:36;2.07;;;1.67;;
15833;SDS011;8017;50.812;4.934;2023-02-17T15:49:38;2.90;;;1.90;;
15833;SDS011;8017;50.812;4.934;2023-02-17T15:52:40;3.43;;;2.20;;
15833;SDS011;8017;50.812;4.934;2023-02-17T15:55:44;2.57;;;2.10;;
15833;SDS011;8017;50.812;4.934;2023-02-17T15:58:47;2.40;;;2.00;;
15833;SDS011;8017;50.812;4.934;2023-02-17T16:01:51;2.43;;;2.00;;
15833;SDS011;8017;50.812;4.934;2023-02-17T16:04:55;5.33;;;2.57;;
15833;SDS011;8017;50.812;4.934;2023-02-17T16:07:57;3.97;;;2.47;;
15833;SDS011;8017;50.812;4.934;2023-02-17T16:11:00;3.90;;;2.30;;
15833;SDS011;8017;50.812;4.934;2023-02-17T16:14:02;3.63;;;2.70;;
15833;SDS011;8017;50.812;4.934;2023-02-17T16:17:08;3.77;;;2.40;;
15833;SDS011;8017;50.812;4.934;2023-02-17T16:20:15;2.73;;;1.90;;
15833;SDS011;8017;50.812;4.934;2023-02-17T16:23:18;1.90;;;1.63;;
15833;SDS011;8017;50.812;4.934;2023-02-17T16:26:23;2.43;;;1.87;;
15833;SDS011;8017;50.812;4.934;2023-02-17T16:29:28;2.07;;;1.70;;
15833;SDS011;8017;50.812;4.934;2023-02-17T16:32:30;3.43;;;2.57;;
15833;SDS011;8017;50.812;4.934;2023-02-17T16:35:32;3.43;;;2.20;;
15833;SDS011;8017;50.812;4.934;2023-02-17T16:38:34;2.67;;;2.10;;
15833;SDS011;8017;50.812;4.934;2023-02-17T16:41:37;4.50;;;2.33;;
15833;SDS011;8017;50.812;4.934;2023-02-17T16:44:39;5.40;;;3.20;;
15833;SDS011;8017;50.812;4.934;2023-02-17T16:47:43;3.57;;;3.17;;
15833;SDS011;8017;50.812;4.934;2023-02-17T16:50:47;5.93;;;3.90;;
15833;SDS011;8017;50.812;4.934;2023-02-17T16:53:49;5.30;;;4.10;;
15833;SDS011;8017;50.812;4.934;2023-02-17T16:56:52;5.63;;;4.67;;
15833;SDS011;8017;50.812;4.934;2023-02-17T16:59:55;6.13;;;5.00;;
15833;SDS011;8017;50.812;4.934;2023-02-17T17:02:57;6.67;;;5.07;;
15833;SDS011;8017;50.812;4.934;2023-02-17T17:05:59;6.03;;;5.43;;
15833;SDS011;8017;50.812;4.934;2023-02-17T17:09:06;5.60;;;5.10;;
15833;SDS011;8017;50.812;4.934;2023-02-17T17:12:10;5.80;;;5.20;;
15833;SDS011;8017;50.812;4.934;2023-02-17T17:15:12;9.43;;;5.47;;
15833;SDS011;8017;50.812;4.934;2023-02-17T17:18:17;6.03;;;5.43;;
15833;SDS011;8017;50.812;4.934;2023-02-17T17:21:20;5.67;;;5.07;;
15833;SDS011;8017;50.812;4.934;2023-02-17T17:24:22;6.03;;;5.43;;
15833;SDS011;8017;50.812;4.934;2023-02-17T17:27:26;6.73;;;5.60;;
15833;SDS011;8017;50.812;4.934;2023-02-17T17:30:29;7.77;;;5.77;;
15833;SDS011;8017;50.812;4.934;2023-02-17T17:33:34;6.90;;;5.73;;
15833;SDS011;8017;50.812;4.934;2023-02-17T17:36:37;6.97;;;6.27;;
15833;SDS011;8017;50.812;4.934;2023-02-17T17:39:40;7.00;;;6.40;;
15833;SDS011;8017;50.812;4.934;2023-02-17T17:42:43;8.50;;;6.50;;
15833;SDS011;8017;50.812;4.934;2023-02-17T17:45:46;8.63;;;7.63;;
15833;SDS011;8017;50.812;4.934;2023-02-17T17:48:48;8.53;;;6.90;;
15833;SDS011;8017;50.812;4.934;2023-02-17T17:51:51;7.97;;;7.17;;
15833;SDS011;8017;50.812;4.934;2023-02-17T17:54:53;7.97;;;7.00;;
15833;SDS011;8017;50.812;4.934;2023-02-17T17:57:56;7.73;;;6.90;;
15833;SDS011;8017;50.812;4.934;2023-02-17T18:00:58;8.30;;;7.43;;
15833;SDS011;8017;50.812;4.934;2023-02-17T18:04:01;9.90;;;7.90;;
15833;SDS011;8017;50.812;4.934;2023-02-17T18:07:03;9.33;;;8.33;;
15833;SDS011;8017;50.812;4.934;2023-02-17T18:10:06;7.83;;;7.07;;
15833;SDS011;8017;50.812;4.934;2023-02-17T18:13:10;7.80;;;7.00;;
15833;SDS011;8017;50.812;4.934;2023-02-17T18:16:13;7.47;;;6.77;;
15833;SDS011;8017;50.812;4.934;2023-02-17T18:19:16;6.90;;;6.30;;
15833;SDS011;8017;50.812;4.934;2023-02-17T18:22:19;8.27;;;7.47;;
15833;SDS011;8017;50.812;4.934;2023-02-17T18:25:21;8.50;;;7.80;;
15833;SDS011;8017;50.812;4.934;2023-02-17T18:28:25;8.13;;;7.40;;
15833;SDS011;8017;50.812;4.934;2023-02-17T18:31:27;8.10;;;7.30;;
15833;SDS011;8017;50.812;4.934;2023-02-17T18:34:29;8.47;;;7.63;;
15833;SDS011;8017;50.812;4.934;2023-02-17T18:37:31;7.63;;;6.77;;
15833;SDS011;8017;50.812;4.934;2023-02-17T18:40:35;8.90;;;7.83;;
15833;SDS011;8017;50.812;4.934;2023-02-17T18:43:40;7.33;;;6.57;;
15833;SDS011;8017;50.812;4.934;2023-02-17T18:46:41;8.27;;;7.33;;